Painesville, OH (44077)

9:10 PM EDT on July 30, 2015 (GMT -0400)
Concord Township | | Change Station
CLOSE
Current Station
Personal Weather Station
Location: Concord Township, OH
Elevation: 850 ft
Nearby Weather Stations
Active Advisory: Beach Hazard Statement

Elev 850 ft 41.69 °N, 81.21 °W | Updated 16 seconds ago

Clear
Clear
76.6 °F
Feels Like 78 °F
N
1.0
Wind Variable Wind from West
Gusts 7.0 mph

Today
High -- | Low -- °F
--% Chance of Precip.
Yesterday
High -- | Low -- °F
Precip. -- in
6:16 AM 8:45 PM
Full, 100% visible
Pressure 29.96 in
Visibility 20.0 miles
Clouds Clear
Heat Index 78 °F
Dew Point 62 °F
Humidity 60%
Rainfall 0.11 in
Snow Depth Not available.
UV 0 out of 12
Pollen 7.30 out of 12
Air Quality Not available.
Flu Activity Not available.
METAR KCGF 310045Z 28011G18KT 20SM SKC 26/17 A2996

More Conditions Fewer Conditions

Pressure 29.96 in
Visibility 20.0 miles
Clouds Clear
Heat Index 78 °F
Dew Point 62 °F
Humidity 60%
Rainfall 0.11 in
Snow Depth Not available.
UV 0 out of 12
Pollen 7.30 out of 12
Air Quality Not available.
Flu Activity Not available.
METAR KCGF 310045Z 28011G18KT 20SM SKC 26/17 A2996

More Conditions Fewer Conditions

10-Day Weather Forecast

×

Almanac

Astronomy

Jul. 30, 2015 Rise Set
Actual Time
Civil Twilight
Nautical Twilight
Astronomical Twilight
Moon
Length of Visible Light
Length of Day
Tomorrow will be .
, % of the Moon is Illuminated

Today's Extremes

State Highs State Lows

Community

WunderPhotos

Upload Photos

1,842,556 photos uploaded!

WunderBlogs® & News

Nearby

Air Quality

  Air Quality AQ Index Pollutant
Not available.

Snow Depth

Station Depth Elevation

Earthquake Activity

City Distance Mag. Time & Date
Minimum magnitude displayed is 2.5.

Coastal Water Temperatures

Place Temperature

Stations

Nearby Weather Stations

Station Location Temp. Windchill Dew Point Humidity Wind Precip. Elev Updated Type
                   
Beach Hazard Statement
Statement as of 3:42 PM EDT on July 30, 2015

... Beach hazards statement remains in effect until 3 am EDT
Friday...

* hazards... high swimming risk.

* Timing... through 3 am Friday.

* Location... from Willowick Ohio to Ripley New York.

* Potential impacts..dangerous swimming conditions will occur
from currents and high waves.

Precautionary/preparedness actions...

Swimming risk exists today. The combination of wind and waves
will make for potentially dangerous conditions for swimmers
including the risk of rip currents. Follow the instruction of
local authorities or stay out of the water.